createdAt,value
2022-10-11T00:01:56.388Z,10.00
2022-10-11T00:04:23.205Z,9.35
2022-10-11T00:06:49.997Z,7.45
2022-10-11T00:09:16.768Z,9.95
2022-10-11T00:11:43.631Z,9.07
2022-10-11T00:14:10.998Z,8.90
2022-10-11T00:16:40.937Z,8.57
2022-10-11T00:19:07.772Z,8.02
2022-10-11T00:21:34.565Z,9.27
2022-10-11T00:24:01.510Z,7.03
2022-10-11T00:26:28.872Z,9.15
2022-10-11T00:28:55.742Z,10.68
2022-10-11T00:31:23.146Z,12.23
2022-10-11T00:33:49.887Z,8.43
2022-10-11T00:36:17.567Z,10.15
2022-10-11T00:38:45.013Z,7.00
2022-10-11T00:41:12.306Z,9.20
2022-10-11T00:43:39.893Z,4.47
2022-10-11T00:46:29.625Z,11.90
2022-10-11T00:49:05.215Z,8.32
2022-10-11T00:51:37.728Z,8.50
2022-10-11T00:54:06.548Z,9.35
2022-10-11T00:56:37.737Z,7.32
2022-10-11T00:59:10.652Z,11.20
2022-10-11T01:01:39.729Z,8.98
2022-10-11T01:04:06.484Z,15.70
2022-10-11T01:06:34.700Z,9.57
2022-10-11T01:11:29.962Z,8.18
2022-10-11T01:14:41.510Z,9.35
2022-10-11T01:17:20.586Z,8.63
2022-10-11T01:20:09.567Z,10.00
2022-10-11T01:23:05.937Z,11.95
2022-10-11T01:25:49.068Z,7.68
2022-10-11T01:28:21.902Z,7.18
2022-10-11T01:30:50.865Z,13.30
2022-10-11T01:33:29.598Z,9.38
2022-10-11T01:36:12.299Z,13.23
2022-10-11T01:38:49.157Z,9.88
2022-10-11T01:41:23.731Z,15.02
2022-10-11T01:43:54.035Z,8.55
2022-10-11T01:46:21.815Z,9.13
2022-10-11T01:48:56.861Z,8.77
2022-10-11T01:51:29.819Z,12.73
2022-10-11T01:54:04.632Z,11.50
2022-10-11T01:56:49.946Z,15.13
2022-10-11T01:59:31.647Z,11.20
2022-10-11T02:01:58.460Z,8.55
2022-10-11T02:04:47.815Z,12.98
2022-10-11T02:07:28.029Z,13.15
2022-10-11T02:10:10.304Z,11.90
2022-10-11T02:12:43.915Z,15.55
2022-10-11T02:15:12.617Z,11.38
2022-10-11T02:17:47.332Z,12.18
2022-10-11T02:20:19.560Z,9.82
2022-10-11T02:22:49.797Z,12.07
2022-10-11T02:25:22.863Z,14.55
2022-10-11T02:27:51.814Z,12.32
2022-10-11T02:30:18.805Z,17.67
2022-10-11T02:32:48.659Z,14.07
2022-10-11T02:35:15.744Z,13.88
2022-10-11T02:37:54.235Z,17.73
2022-10-11T02:40:30.207Z,14.25
2022-10-11T02:43:23.939Z,18.25
2022-10-11T02:46:01.434Z,22.65
2022-10-11T02:48:29.722Z,21.58
2022-10-11T02:50:59.832Z,12.65
2022-10-11T02:53:27.110Z,12.23
2022-10-11T02:55:55.736Z,22.60
2022-10-11T02:58:23.875Z,19.08
2022-10-11T03:00:50.715Z,14.32
2022-10-11T03:03:17.497Z,14.90
2022-10-11T03:05:45.390Z,18.08
2022-10-11T03:08:14.261Z,16.42
2022-10-11T03:10:41.886Z,13.73
2022-10-11T03:13:09.124Z,13.82
2022-10-11T03:15:35.987Z,19.83
2022-10-11T03:18:05.797Z,20.67
2022-10-11T03:20:32.588Z,12.32
2022-10-11T03:22:59.435Z,12.93
2022-10-11T03:25:26.159Z,16.45
2022-10-11T03:27:52.906Z,20.67
2022-10-11T03:30:20.114Z,12.55
2022-10-11T03:32:47.304Z,17.73
2022-10-11T03:35:14.454Z,18.60
2022-10-11T03:37:41.252Z,18.05
2022-10-11T03:40:08.867Z,19.02
2022-10-11T03:42:36.289Z,17.27
2022-10-11T03:45:08.190Z,20.20
2022-10-11T03:47:36.550Z,16.48
2022-10-11T03:50:04.993Z,14.23
2022-10-11T03:52:32.164Z,19.67
2022-10-11T03:54:59.056Z,17.55
2022-10-11T03:57:26.031Z,23.13
2022-10-11T03:59:52.918Z,18.33
2022-10-11T04:02:19.899Z,15.20
2022-10-11T04:04:46.798Z,16.02
2022-10-11T04:07:13.976Z,19.50
2022-10-11T04:09:40.787Z,14.02
2022-10-11T04:12:07.650Z,16.70
2022-10-11T04:14:34.547Z,17.02
2022-10-11T04:17:01.323Z,17.98
2022-10-11T04:19:28.726Z,18.67
2022-10-11T04:21:55.810Z,19.10
2022-10-11T04:24:22.523Z,18.30
2022-10-11T04:26:49.369Z,17.10
2022-10-11T04:29:16.334Z,20.20
2022-10-11T04:31:43.287Z,20.50
2022-10-11T04:34:10.305Z,14.68
2022-10-11T04:36:38.940Z,15.95
2022-10-11T04:39:06.939Z,23.75
2022-10-11T04:41:34.470Z,25.45
2022-10-11T04:44:01.805Z,16.95
2022-10-11T04:46:28.783Z,17.80
2022-10-11T04:48:55.953Z,24.02
2022-10-11T04:51:23.055Z,12.95
2022-10-11T04:53:50.044Z,21.23
2022-10-11T04:56:19.978Z,13.68
2022-10-11T04:58:49.502Z,19.38
2022-10-11T05:01:16.282Z,19.45
2022-10-11T05:03:43.653Z,18.77
2022-10-11T05:06:10.610Z,20.08
2022-10-11T05:08:37.934Z,18.80
2022-10-11T05:11:11.042Z,18.73
2022-10-11T05:13:38.301Z,20.73
2022-10-11T05:16:10.681Z,22.50
2022-10-11T05:18:38.251Z,16.63
2022-10-11T05:21:23.749Z,19.87
2022-10-11T05:23:52.015Z,15.43
2022-10-11T05:28:47.104Z,17.27
2022-10-11T05:31:13.892Z,17.52
2022-10-11T05:33:40.963Z,20.00
2022-10-11T05:36:09.379Z,22.85
2022-10-11T05:38:38.005Z,20.98
2022-10-11T05:41:05.840Z,16.08
2022-10-11T05:43:33.147Z,17.00
2022-10-11T05:45:59.924Z,24.40
2022-10-11T05:48:27.001Z,16.00
2022-10-11T05:50:59.058Z,18.08
2022-10-11T05:53:26.291Z,21.85
2022-10-11T05:55:53.432Z,22.10
2022-10-11T05:58:20.335Z,17.50
2022-10-11T06:00:47.020Z,21.67
2022-10-11T06:03:14.164Z,19.13
2022-10-11T06:05:41.375Z,15.02
2022-10-11T06:08:09.874Z,19.13
2022-10-11T06:10:38.149Z,18.05
2022-10-11T06:15:31.870Z,10.90
2022-10-11T06:17:59.266Z,23.35
2022-10-11T06:20:26.988Z,13.47
2022-10-11T06:22:55.125Z,12.43
2022-10-11T06:25:21.898Z,19.55
2022-10-11T06:27:48.619Z,19.38
2022-10-11T06:30:15.494Z,22.05
2022-10-11T06:32:42.318Z,18.02
2022-10-11T06:35:09.374Z,15.52
2022-10-11T06:37:36.299Z,21.50
2022-10-11T06:40:03.321Z,11.98
2022-10-11T06:42:30.126Z,16.98
2022-10-11T06:44:56.919Z,16.15
2022-10-11T06:47:23.649Z,12.95
2022-10-11T06:49:50.516Z,14.85
2022-10-11T06:52:17.268Z,16.42
2022-10-11T06:54:45.181Z,18.27
2022-10-11T06:57:12.297Z,15.32
2022-10-11T06:59:39.078Z,15.57
2022-10-11T07:02:06.137Z,21.02
2022-10-11T07:04:34.052Z,15.43
2022-10-11T07:07:01.041Z,17.08
2022-10-11T07:09:27.788Z,19.15
2022-10-11T07:11:54.627Z,25.42
2022-10-11T07:14:21.707Z,13.43
2022-10-11T07:16:48.423Z,11.20
2022-10-11T07:19:15.373Z,20.80
2022-10-11T07:21:42.172Z,17.25
2022-10-11T07:24:09.071Z,15.68
2022-10-11T07:26:38.844Z,19.42
2022-10-11T07:29:08.936Z,16.23
2022-10-11T07:31:38.044Z,13.05
2022-10-11T07:34:05.239Z,14.98
2022-10-11T07:36:32.110Z,13.98
2022-10-11T07:38:58.895Z,11.10
2022-10-11T07:41:25.675Z,11.60
2022-10-11T07:43:52.403Z,13.20
2022-10-11T07:46:19.840Z,16.92
2022-10-11T07:48:46.626Z,12.18
2022-10-11T07:51:17.002Z,15.90
2022-10-11T07:53:46.297Z,10.50
2022-10-11T07:56:15.304Z,13.15
2022-10-11T07:58:42.674Z,12.07
2022-10-11T08:01:11.699Z,16.13
2022-10-11T08:03:38.807Z,15.63
2022-10-11T08:06:08.506Z,11.73
2022-10-11T08:08:36.771Z,10.30
2022-10-11T08:11:04.329Z,13.98
2022-10-11T08:13:31.371Z,14.07
2022-10-11T08:15:58.468Z,17.67
2022-10-11T08:18:25.444Z,13.05
2022-10-11T08:20:55.919Z,16.98
2022-10-11T08:23:22.701Z,14.93
2022-10-11T08:25:49.422Z,13.90
2022-10-11T08:28:19.009Z,16.33
2022-10-11T08:30:50.540Z,14.30
2022-10-11T08:33:19.216Z,10.07
2022-10-11T08:35:45.993Z,13.93
2022-10-11T08:38:13.105Z,12.15
2022-10-11T08:40:55.168Z,16.15
2022-10-11T08:43:51.584Z,15.13
2022-10-11T08:46:24.650Z,12.25
2022-10-11T08:48:52.138Z,15.82
2022-10-11T08:51:24.225Z,11.75
2022-10-11T08:53:56.767Z,10.63
2022-10-11T08:56:27.259Z,10.98
2022-10-11T08:58:56.693Z,15.90
2022-10-11T09:01:28.682Z,12.98
2022-10-11T09:03:55.697Z,12.73
2022-10-11T09:06:47.729Z,14.43
2022-10-11T09:09:23.383Z,11.52
2022-10-11T09:12:23.059Z,13.50
2022-10-11T09:15:09.828Z,11.27
2022-10-11T09:17:49.759Z,14.65
2022-10-11T09:20:52.499Z,14.95
2022-10-11T09:23:54.833Z,11.43
2022-10-11T09:26:24.607Z,9.80
2022-10-11T09:29:10.257Z,11.25
2022-10-11T09:31:37.640Z,12.25
2022-10-11T09:34:13.782Z,12.73
2022-10-11T09:37:18.068Z,12.23
2022-10-11T09:40:02.191Z,12.35
2022-10-11T09:42:29.039Z,11.18
2022-10-11T09:44:57.362Z,11.88
2022-10-11T09:47:27.194Z,12.80
2022-10-11T09:50:03.459Z,8.45
2022-10-11T09:52:30.804Z,12.88
2022-10-11T09:55:00.938Z,9.70
2022-10-11T09:57:33.869Z,10.85
2022-10-11T10:00:03.006Z,11.18
2022-10-11T10:02:46.870Z,10.45
2022-10-11T10:05:15.781Z,9.43
2022-10-11T10:08:04.809Z,9.50
2022-10-11T10:10:31.894Z,13.32
2022-10-11T10:13:01.584Z,12.52
2022-10-11T10:15:37.363Z,12.45
2022-10-11T10:18:10.509Z,12.70
2022-10-11T10:20:38.124Z,12.68
2022-10-11T10:23:19.279Z,12.30
2022-10-11T10:25:51.073Z,10.40
2022-10-11T10:28:26.533Z,12.18
2022-10-11T10:30:56.313Z,13.32
2022-10-11T10:33:30.937Z,12.05
2022-10-11T10:36:12.589Z,10.95
2022-10-11T10:38:52.036Z,10.68
2022-10-11T10:41:19.460Z,12.27
2022-10-11T10:43:56.454Z,10.88
2022-10-11T10:46:48.194Z,13.00
2022-10-11T10:50:00.135Z,12.25
2022-10-11T10:52:46.934Z,9.32
2022-10-11T10:55:40.310Z,9.57
2022-10-11T10:58:45.855Z,9.35
2022-10-11T11:01:19.950Z,8.73
2022-10-11T11:04:04.601Z,8.23
2022-10-11T11:06:42.754Z,6.30
2022-10-11T11:12:10.882Z,10.93
2022-10-11T11:15:04.117Z,11.50
2022-10-11T11:17:49.590Z,10.65
2022-10-11T11:20:28.769Z,7.38
2022-10-11T11:23:07.552Z,10.50
2022-10-11T11:25:50.604Z,12.50
2022-10-11T11:28:26.327Z,5.35
2022-10-11T11:31:05.587Z,9.02
2022-10-11T11:33:48.970Z,10.18
2022-10-11T11:36:21.322Z,7.53
2022-10-11T11:38:53.237Z,9.57
2022-10-11T11:41:26.003Z,8.65
2022-10-11T11:44:04.936Z,7.05
2022-10-11T11:47:00.296Z,7.00
2022-10-11T11:49:37.559Z,6.00
2022-10-11T11:52:07.384Z,10.43
2022-10-11T11:55:12.137Z,6.88
2022-10-11T11:58:09.833Z,11.32
2022-10-11T12:03:41.795Z,6.57
2022-10-11T12:06:14.773Z,5.93
2022-10-11T12:08:45.945Z,7.85
2022-10-11T12:11:38.456Z,4.20
2022-10-11T12:14:22.298Z,6.88
2022-10-11T12:17:22.758Z,6.75
2022-10-11T12:20:25.738Z,10.32
2022-10-11T12:22:59.930Z,7.78
2022-10-11T12:25:26.695Z,6.10
2022-10-11T12:27:56.330Z,7.28
2022-10-11T12:30:47.979Z,7.10
2022-10-11T12:33:24.886Z,6.70
2022-10-11T12:35:54.776Z,10.57
2022-10-11T12:38:37.245Z,8.55
2022-10-11T12:41:09.863Z,9.52
2022-10-11T12:44:09.113Z,7.18
2022-10-11T12:47:01.093Z,7.47
2022-10-11T12:50:18.152Z,5.60
2022-10-11T12:53:22.446Z,7.22
2022-10-11T12:55:58.939Z,7.07
2022-10-11T12:58:41.299Z,7.05
2022-10-11T13:01:13.000Z,6.75
2022-10-11T13:03:43.960Z,5.45
2022-10-11T13:06:27.722Z,6.03
2022-10-11T13:09:05.766Z,5.72
2022-10-11T13:11:37.054Z,7.22
2022-10-11T13:14:12.552Z,7.90
2022-10-11T13:16:57.492Z,6.20
2022-10-11T13:19:24.939Z,6.13
2022-10-11T13:21:55.717Z,8.35
2022-10-11T13:24:23.416Z,10.02
2022-10-11T13:26:54.101Z,5.90
2022-10-11T13:29:43.707Z,6.50
2022-10-11T13:32:21.923Z,8.32
2022-10-11T13:34:53.857Z,7.32
2022-10-11T13:37:23.931Z,7.32
2022-10-11T13:39:54.933Z,6.45
2022-10-11T13:42:29.818Z,5.60
2022-10-11T13:44:58.234Z,7.00
2022-10-11T13:47:28.154Z,6.85
2022-10-11T13:50:30.427Z,8.68
2022-10-11T13:53:10.559Z,6.57
2022-10-11T13:55:53.647Z,6.13
2022-10-11T13:58:26.575Z,8.68
2022-10-11T14:01:17.896Z,6.53
2022-10-11T14:03:55.307Z,8.13
2022-10-11T14:06:22.229Z,5.25
2022-10-11T14:08:54.422Z,7.20
2022-10-11T14:11:41.797Z,6.65
2022-10-11T14:14:40.407Z,8.68
2022-10-11T14:17:10.629Z,6.97
2022-10-11T14:19:39.875Z,6.68
2022-10-11T14:22:12.201Z,9.48
2022-10-11T14:24:38.954Z,5.72
2022-10-11T14:27:06.201Z,5.68
2022-10-11T14:29:35.638Z,7.03
2022-10-11T14:32:15.306Z,5.78
2022-10-11T14:34:45.207Z,4.55
2022-10-11T14:37:16.723Z,5.28
2022-10-11T14:39:43.777Z,5.03
2022-10-11T14:42:12.033Z,6.37
2022-10-11T14:44:39.144Z,4.38
2022-10-11T14:47:06.844Z,6.47
2022-10-11T14:49:36.643Z,8.18
2022-10-11T14:52:06.674Z,7.28
2022-10-11T14:54:33.673Z,7.93
2022-10-11T14:57:03.943Z,8.02
2022-10-11T14:59:37.007Z,3.70
2022-10-11T15:02:09.290Z,4.70
2022-10-11T15:04:36.014Z,3.97
2022-10-11T15:07:03.753Z,3.78
2022-10-11T15:09:31.088Z,7.65
2022-10-11T15:11:58.115Z,7.47
2022-10-11T15:14:25.918Z,4.90
2022-10-11T15:16:53.332Z,4.57
2022-10-11T15:19:23.660Z,5.40
2022-10-11T15:21:51.021Z,6.40
2022-10-11T15:24:20.948Z,5.60
2022-10-11T15:26:48.967Z,5.47
2022-10-11T15:29:21.743Z,5.68
2022-10-11T15:31:49.476Z,6.50
2022-10-11T15:34:17.249Z,6.63
2022-10-11T15:36:44.138Z,6.90
2022-10-11T15:39:37.247Z,5.22
2022-10-11T15:42:04.214Z,6.10
2022-10-11T15:44:30.928Z,5.70
2022-10-11T15:46:57.941Z,6.53
2022-10-11T15:49:24.819Z,6.00
2022-10-11T15:51:51.572Z,8.05
2022-10-11T15:54:18.506Z,9.25
2022-10-11T15:56:45.319Z,5.88
2022-10-11T15:59:12.346Z,7.30
2022-10-11T16:01:39.644Z,5.50
2022-10-11T16:04:06.647Z,5.83
2022-10-11T16:06:33.516Z,6.03
2022-10-11T16:09:00.264Z,8.50
2022-10-11T16:11:27.108Z,4.93
2022-10-11T16:13:53.838Z,6.55
2022-10-11T16:16:20.556Z,7.57
2022-10-11T16:18:50.124Z,5.60
2022-10-11T16:21:17.098Z,5.15
2022-10-11T16:23:43.912Z,9.68
2022-10-11T16:26:13.866Z,7.88
2022-10-11T16:28:41.894Z,6.78
2022-10-11T16:33:47.976Z,4.20
2022-10-11T16:36:32.039Z,5.10
2022-10-11T16:39:00.551Z,6.00
2022-10-11T16:41:28.037Z,4.30
2022-10-11T16:43:56.021Z,6.38
2022-10-11T16:46:22.836Z,11.00
2022-10-11T16:48:49.989Z,6.75
2022-10-11T16:51:16.724Z,7.25
2022-10-11T16:53:43.518Z,9.93
2022-10-11T16:56:11.492Z,8.10
2022-10-11T16:58:38.389Z,8.02
2022-10-11T17:01:09.993Z,6.45
2022-10-11T17:03:37.814Z,5.07
2022-10-11T17:06:07.232Z,3.92
2022-10-11T17:08:35.289Z,7.28
2022-10-11T17:11:02.953Z,8.35
2022-10-11T17:13:29.982Z,7.68
2022-10-11T17:15:59.421Z,6.45
2022-10-11T17:18:26.495Z,13.23
2022-10-11T17:21:04.422Z,4.65
2022-10-11T17:23:31.166Z,6.88
2022-10-11T17:26:01.078Z,10.27
2022-10-11T17:28:28.326Z,5.93
2022-10-11T17:31:00.081Z,5.50
2022-10-11T17:33:27.817Z,8.68
2022-10-11T17:35:56.113Z,7.28
2022-10-11T17:38:26.423Z,6.40
2022-10-11T17:41:05.447Z,5.88
2022-10-11T17:43:33.196Z,5.18
2022-10-11T17:46:05.198Z,4.10
2022-10-11T17:48:34.011Z,8.20
2022-10-11T17:51:09.363Z,8.05
2022-10-11T17:53:36.625Z,7.97
2022-10-11T17:56:12.633Z,5.90
2022-10-11T17:58:39.795Z,5.88
2022-10-11T18:01:10.132Z,8.75
2022-10-11T18:03:37.672Z,5.75
2022-10-11T18:06:06.354Z,5.15
2022-10-11T18:08:40.398Z,7.70
2022-10-11T18:11:13.025Z,6.00
2022-10-11T18:13:42.963Z,8.43
2022-10-11T18:16:10.765Z,6.03
2022-10-11T18:21:04.951Z,7.53
2022-10-11T18:23:32.553Z,12.65
2022-10-11T18:25:59.299Z,9.63
2022-10-11T18:28:26.208Z,6.60
2022-10-11T18:30:53.229Z,9.88
2022-10-11T18:33:19.987Z,7.60
2022-10-11T18:35:46.720Z,7.80
2022-10-11T18:38:13.472Z,8.02
2022-10-11T18:40:44.709Z,13.32
2022-10-11T18:43:13.387Z,9.18
2022-10-11T18:45:40.105Z,9.15
2022-10-11T18:48:08.609Z,9.18
2022-10-11T18:50:35.672Z,9.18
2022-10-11T18:55:29.818Z,10.17
2022-10-11T18:57:56.613Z,7.47
2022-10-11T19:00:40.301Z,9.68
2022-10-11T19:03:10.113Z,6.00
2022-10-11T19:05:39.118Z,6.88
2022-10-11T19:08:06.063Z,5.55
2022-10-11T19:10:34.117Z,9.43
2022-10-11T19:13:02.195Z,7.32
2022-10-11T19:17:55.973Z,6.55
2022-10-11T19:20:22.875Z,11.32
2022-10-11T19:22:49.654Z,7.95
2022-10-11T19:25:16.488Z,7.93
2022-10-11T19:27:43.218Z,8.02
2022-10-11T19:30:10.691Z,4.53
2022-10-11T19:32:37.436Z,11.30
2022-10-11T19:35:04.867Z,9.20
2022-10-11T19:37:31.880Z,6.13
2022-10-11T19:40:03.903Z,7.50
2022-10-11T19:42:30.958Z,4.65
2022-10-11T19:44:57.985Z,5.83
2022-10-11T19:47:24.763Z,4.90
2022-10-11T19:49:51.820Z,8.75
2022-10-11T19:52:18.927Z,10.90
2022-10-11T19:54:45.659Z,8.32
2022-10-11T19:57:12.507Z,11.00
2022-10-11T19:59:39.217Z,9.13
2022-10-11T20:02:08.575Z,11.57
2022-10-11T20:04:53.030Z,6.20
2022-10-11T20:07:20.229Z,11.40
2022-10-11T20:09:46.917Z,6.00
2022-10-11T20:12:16.561Z,6.82
2022-10-11T20:14:43.319Z,7.80
2022-10-11T20:17:10.066Z,10.95
2022-10-11T20:19:36.790Z,10.55
2022-10-11T20:22:03.588Z,11.02
2022-10-11T20:24:33.532Z,13.90
2022-10-11T20:27:03.188Z,12.40
2022-10-11T20:29:30.806Z,7.65
2022-10-11T20:31:59.151Z,9.85
2022-10-11T20:34:27.172Z,7.70
2022-10-11T20:36:54.009Z,10.77
2022-10-11T20:39:21.336Z,9.57
2022-10-11T20:41:48.186Z,11.95
2022-10-11T20:44:16.120Z,7.95
2022-10-11T20:46:43.038Z,9.27
2022-10-11T20:49:11.347Z,8.15
2022-10-11T20:51:39.746Z,8.43
2022-10-11T20:54:06.503Z,6.93
2022-10-11T20:56:34.060Z,6.22
2022-10-11T20:59:01.340Z,7.28
2022-10-11T21:01:31.930Z,7.90
2022-10-11T21:04:00.364Z,5.68
2022-10-11T21:06:28.407Z,7.43
2022-10-11T21:08:56.448Z,4.80
2022-10-11T21:11:27.794Z,6.20
2022-10-11T21:13:59.489Z,5.20
2022-10-11T21:16:29.633Z,6.03
2022-10-11T21:18:57.710Z,4.63
2022-10-11T21:21:24.951Z,5.35
2022-10-11T21:23:56.275Z,11.53
2022-10-11T21:26:23.325Z,8.18
2022-10-11T21:28:50.378Z,11.27
2022-10-11T21:31:19.127Z,6.07
2022-10-11T21:33:46.932Z,9.85
2022-10-11T21:36:24.978Z,8.15
2022-10-11T21:38:53.201Z,8.07
2022-10-11T21:43:48.432Z,9.75
2022-10-11T21:46:22.210Z,10.75
2022-10-11T21:48:50.125Z,10.32
2022-10-11T21:51:30.188Z,9.98
2022-10-11T21:54:00.222Z,9.65
2022-10-11T21:56:28.037Z,13.02
2022-10-11T21:58:55.271Z,11.48
2022-10-11T22:01:22.293Z,14.43
2022-10-11T22:03:49.539Z,12.48
2022-10-11T22:06:16.837Z,9.53
2022-10-11T22:08:43.813Z,12.80
2022-10-11T22:11:11.207Z,13.85
2022-10-11T22:13:38.324Z,18.33
2022-10-11T22:16:06.900Z,11.75
2022-10-11T22:18:33.989Z,13.00
2022-10-11T22:21:16.102Z,14.90
2022-10-11T22:23:45.918Z,16.33
2022-10-11T22:26:17.799Z,10.48
2022-10-11T22:28:48.166Z,13.32
2022-10-11T22:31:17.250Z,12.23
2022-10-11T22:36:13.195Z,12.52
2022-10-11T22:38:41.965Z,12.90
2022-10-11T22:41:09.485Z,13.10
2022-10-11T22:43:36.324Z,11.55
2022-10-11T22:46:03.155Z,15.15
2022-10-11T22:48:30.163Z,12.38
2022-10-11T22:50:56.962Z,14.25
2022-10-11T22:53:23.712Z,11.70
2022-10-11T22:55:50.918Z,20.27
2022-10-11T22:58:17.720Z,12.17
2022-10-11T23:00:44.516Z,14.63
2022-10-11T23:03:18.483Z,12.88
2022-10-11T23:05:55.055Z,8.68
2022-10-11T23:08:21.877Z,8.05
2022-10-11T23:10:48.710Z,10.43
2022-10-11T23:13:16.885Z,12.52
2022-10-11T23:18:10.655Z,15.18
2022-10-11T23:20:40.633Z,13.38
2022-10-11T23:23:07.465Z,14.90
2022-10-11T23:25:34.358Z,13.90
2022-10-11T23:28:02.100Z,15.27
2022-10-11T23:30:30.144Z,11.55
2022-10-11T23:32:57.017Z,6.35
2022-10-11T23:35:24.072Z,8.48
2022-10-11T23:37:53.125Z,6.43
2022-10-11T23:40:19.908Z,10.15
2022-10-11T23:42:46.641Z,10.13
2022-10-11T23:45:13.378Z,11.45
2022-10-11T23:47:40.707Z,17.08
2022-10-11T23:50:08.472Z,15.85
2022-10-11T23:52:35.320Z,10.02
2022-10-11T23:55:02.048Z,12.40
2022-10-11T23:57:28.918Z,10.73
2022-10-11T23:59:55.717Z,12.73
